createdAt,value
2019-05-05T00:01:38.059Z,3.87
2019-05-05T00:05:45.051Z,3.77
2019-05-05T00:09:51.779Z,3.80
2019-05-05T00:14:07.722Z,3.53
2019-05-05T00:18:15.132Z,3.77
2019-05-05T00:22:21.881Z,4.30
2019-05-05T00:26:28.691Z,3.53
2019-05-05T00:30:35.570Z,3.53
2019-05-05T00:34:44.441Z,3.90
2019-05-05T00:38:51.870Z,3.87
2019-05-05T00:42:58.672Z,4.57
2019-05-05T00:47:20.360Z,4.53
2019-05-05T00:51:26.996Z,4.23
2019-05-05T00:55:34.953Z,3.60
2019-05-05T00:59:41.765Z,3.70
2019-05-05T01:03:48.634Z,4.30
2019-05-05T01:07:55.425Z,4.00
2019-05-05T01:12:04.280Z,3.70
2019-05-05T01:16:11.728Z,3.60
2019-05-05T01:20:18.565Z,4.27
2019-05-05T01:24:25.362Z,3.87
2019-05-05T01:28:35.510Z,3.67
2019-05-05T01:32:45.447Z,3.90
2019-05-05T01:36:58.020Z,4.03
2019-05-05T01:41:20.489Z,4.27
2019-05-05T01:45:27.342Z,3.77
2019-05-05T01:49:34.578Z,4.17
2019-05-05T01:53:41.332Z,4.10
2019-05-05T01:57:48.635Z,4.07
2019-05-05T02:01:55.536Z,3.73
2019-05-05T02:06:02.249Z,4.00
2019-05-05T02:10:10.127Z,3.90
2019-05-05T02:14:16.889Z,3.97
2019-05-05T02:18:25.380Z,3.83
2019-05-05T02:22:32.169Z,3.80
2019-05-05T02:26:39.005Z,4.03
2019-05-05T02:30:55.066Z,4.10
2019-05-05T02:35:06.414Z,4.17
2019-05-05T02:39:15.730Z,4.40
2019-05-05T02:43:25.063Z,4.27
2019-05-05T02:47:55.206Z,4.27
2019-05-05T02:52:04.892Z,4.17
2019-05-05T02:56:18.171Z,3.97
2019-05-05T03:00:43.748Z,4.50
2019-05-05T03:04:53.581Z,4.63
2019-05-05T03:09:00.926Z,4.13
2019-05-05T03:13:09.627Z,4.47
2019-05-05T03:17:17.109Z,4.37
2019-05-05T03:21:24.299Z,4.80
2019-05-05T03:25:33.293Z,4.40
2019-05-05T03:29:40.797Z,4.70
2019-05-05T03:33:47.964Z,4.53
2019-05-05T03:37:54.881Z,4.63
2019-05-05T03:42:27.201Z,4.60
2019-05-05T03:46:34.843Z,4.70
2019-05-05T03:50:41.675Z,5.30
2019-05-05T03:54:48.434Z,5.13
2019-05-05T03:58:58.001Z,4.73
2019-05-05T04:03:08.484Z,4.80
2019-05-05T04:07:15.317Z,4.93
2019-05-05T04:11:23.663Z,5.53
2019-05-05T04:15:33.733Z,5.53
2019-05-05T04:19:44.461Z,4.77
2019-05-05T04:23:51.139Z,4.80
2019-05-05T04:27:57.881Z,5.00
2019-05-05T04:32:04.788Z,5.13
2019-05-05T04:36:11.457Z,4.70
2019-05-05T04:40:18.224Z,5.30
2019-05-05T04:44:24.925Z,4.90
2019-05-05T04:48:54.413Z,5.53
2019-05-05T04:53:04.546Z,4.93
2019-05-05T04:57:11.135Z,5.00
2019-05-05T05:01:17.819Z,5.10
2019-05-05T05:05:33.626Z,5.13
2019-05-05T05:09:40.081Z,6.07
2019-05-05T05:13:46.754Z,5.23
2019-05-05T05:18:00.214Z,5.73
2019-05-05T05:22:07.023Z,5.70
2019-05-05T05:26:14.047Z,5.77
2019-05-05T05:30:20.785Z,6.10
2019-05-05T05:34:27.563Z,5.97
2019-05-05T05:38:34.766Z,6.07
2019-05-05T05:42:43.944Z,6.27
2019-05-05T05:46:59.483Z,6.20
2019-05-05T05:51:08.886Z,6.77
2019-05-05T05:55:15.642Z,6.20
2019-05-05T05:59:24.536Z,6.43
2019-05-05T06:03:36.222Z,6.10
2019-05-05T06:07:44.269Z,6.37
2019-05-05T06:11:54.070Z,7.07
2019-05-05T06:16:01.246Z,6.53
2019-05-05T06:20:08.198Z,6.43
2019-05-05T06:24:14.911Z,6.50
2019-05-05T06:28:23.546Z,6.27
2019-05-05T06:32:30.366Z,6.90
2019-05-05T06:36:37.080Z,6.53
2019-05-05T06:41:06.755Z,6.60
2019-05-05T06:45:34.312Z,6.60
2019-05-05T06:49:43.752Z,6.60
2019-05-05T06:53:50.702Z,6.77
2019-05-05T06:57:57.425Z,5.97
2019-05-05T07:02:04.450Z,5.53
2019-05-05T07:06:11.373Z,5.17
2019-05-05T07:10:18.095Z,3.77
2019-05-05T07:14:24.772Z,3.90
2019-05-05T07:18:33.918Z,4.00
2019-05-05T07:22:40.180Z,3.40
2019-05-05T07:26:46.946Z,3.70
2019-05-05T07:30:54.782Z,3.67
2019-05-05T07:35:09.239Z,3.57
2019-05-05T07:39:16.130Z,2.87
2019-05-05T07:43:24.000Z,2.70
2019-05-05T07:47:30.762Z,2.33
2019-05-05T07:51:37.648Z,2.20
2019-05-05T07:55:44.446Z,2.63
2019-05-05T07:59:51.220Z,2.63
2019-05-05T08:03:58.048Z,2.30
2019-05-05T08:08:04.765Z,2.30
2019-05-05T08:12:13.555Z,2.37
2019-05-05T08:16:36.703Z,2.60
2019-05-05T08:20:50.050Z,1.80
2019-05-05T08:25:07.900Z,2.13
2019-05-05T08:29:49.004Z,2.00
2019-05-05T08:33:57.040Z,2.23
2019-05-05T08:38:09.187Z,1.97
2019-05-05T08:42:18.485Z,2.23
2019-05-05T08:46:25.468Z,2.00
2019-05-05T08:50:34.632Z,1.73
2019-05-05T08:54:48.797Z,2.43
2019-05-05T08:58:59.760Z,2.50
2019-05-05T09:03:08.972Z,2.20
2019-05-05T09:07:30.428Z,2.60
2019-05-05T09:11:54.191Z,1.97
2019-05-05T09:16:49.913Z,2.60
2019-05-05T09:21:30.720Z,2.50
2019-05-05T09:26:10.367Z,2.40
2019-05-05T09:30:21.104Z,2.27
2019-05-05T09:35:49.866Z,2.27
2019-05-05T09:39:57.253Z,3.13
2019-05-05T09:55:14.003Z,2.20
2019-05-05T09:59:24.055Z,2.50
2019-05-05T10:03:34.461Z,2.27
2019-05-05T10:07:45.392Z,2.43
2019-05-05T10:11:54.202Z,3.43
2019-05-05T10:16:04.071Z,3.10
2019-05-05T10:20:16.979Z,2.43
2019-05-05T10:24:39.548Z,2.50
2019-05-05T10:28:50.537Z,2.43
2019-05-05T10:33:01.139Z,2.10
2019-05-05T10:37:14.538Z,2.17
2019-05-05T10:41:23.799Z,2.77
2019-05-05T10:45:30.697Z,2.40
2019-05-05T10:49:39.363Z,2.50
2019-05-05T10:53:46.274Z,2.47
2019-05-05T10:57:54.256Z,2.47
2019-05-05T11:02:05.181Z,2.27
2019-05-05T11:06:13.696Z,2.40
2019-05-05T11:10:42.100Z,2.70
2019-05-05T11:14:54.358Z,1.83
2019-05-05T11:19:01.588Z,2.00
2019-05-05T11:23:14.551Z,1.83
2019-05-05T11:27:21.477Z,2.50
2019-05-05T11:31:29.028Z,2.20
2019-05-05T11:36:04.804Z,1.97
2019-05-05T11:45:50.511Z,2.03
2019-05-05T11:49:58.522Z,2.17
2019-05-05T11:54:05.787Z,2.10
2019-05-05T11:58:14.359Z,2.90
2019-05-05T12:37:44.615Z,2.30
2019-05-05T12:54:26.929Z,2.50
2019-05-05T13:05:08.907Z,2.40
2019-05-05T13:14:00.968Z,2.27
2019-05-05T13:18:14.015Z,2.03
2019-05-05T13:32:14.168Z,2.27
2019-05-05T13:41:55.446Z,2.33
2019-05-05T13:46:20.576Z,2.10
2019-05-05T13:50:39.869Z,2.10
2019-05-05T13:54:59.507Z,2.57
2019-05-05T13:59:07.492Z,2.30
2019-05-05T14:03:39.331Z,2.33
2019-05-05T14:07:53.641Z,2.07
2019-05-05T14:12:00.641Z,2.60
2019-05-05T14:16:08.955Z,2.70
2019-05-05T14:20:17.290Z,2.20
2019-05-05T14:24:36.969Z,2.67
2019-05-05T14:28:46.622Z,2.20
2019-05-05T14:32:54.480Z,2.37
2019-05-05T14:37:18.859Z,2.50
2019-05-05T14:41:25.971Z,2.70
2019-05-05T14:59:30.163Z,2.53
2019-05-05T15:03:37.015Z,2.30
2019-05-05T15:07:51.223Z,3.90
2019-05-05T15:12:11.754Z,2.63
2019-05-05T15:16:18.752Z,2.27
2019-05-05T15:20:26.265Z,2.30
2019-05-05T15:24:33.630Z,2.40
2019-05-05T15:28:41.481Z,2.30
2019-05-05T15:32:48.390Z,2.37
2019-05-05T15:37:04.381Z,2.90
2019-05-05T15:41:14.818Z,2.80
2019-05-05T15:45:23.578Z,2.97
2019-05-05T15:49:30.872Z,3.17
2019-05-05T15:53:41.956Z,2.80
2019-05-05T15:57:48.950Z,2.43
2019-05-05T16:01:56.046Z,2.70
2019-05-05T16:06:06.223Z,2.60
2019-05-05T16:10:13.757Z,2.80
2019-05-05T16:14:23.849Z,2.80
2019-05-05T16:19:05.331Z,2.53
2019-05-05T16:23:16.629Z,2.50
2019-05-05T16:27:28.083Z,2.43
2019-05-05T16:31:35.383Z,2.47
2019-05-05T16:35:43.780Z,2.80
2019-05-05T16:39:54.443Z,3.13
2019-05-05T16:44:03.702Z,2.90
2019-05-05T16:48:10.496Z,2.73
2019-05-05T16:52:24.002Z,2.70
2019-05-05T16:56:30.838Z,3.00
2019-05-05T17:00:40.513Z,2.90
2019-05-05T17:04:49.296Z,2.50
2019-05-05T17:09:14.937Z,3.23
2019-05-05T17:13:33.403Z,2.57
2019-05-05T17:17:49.778Z,2.70
2019-05-05T17:22:10.061Z,2.67
2019-05-05T17:26:17.581Z,2.67
2019-05-05T17:30:27.094Z,3.27
2019-05-05T17:34:34.744Z,2.73
2019-05-05T17:38:57.881Z,3.07
2019-05-05T17:43:27.793Z,2.63
2019-05-05T17:47:53.899Z,2.80
2019-05-05T17:52:38.701Z,3.13
2019-05-05T17:56:54.410Z,2.80
2019-05-05T18:01:06.361Z,2.77
2019-05-05T18:05:16.916Z,3.13
2019-05-05T18:14:08.594Z,3.13
2019-05-05T18:18:15.866Z,3.50
2019-05-05T18:22:24.797Z,3.03
2019-05-05T18:26:34.123Z,3.10
2019-05-05T18:30:41.197Z,3.53
2019-05-05T18:34:48.170Z,3.13
2019-05-05T18:38:55.015Z,3.30
2019-05-05T18:43:04.038Z,2.73
2019-05-05T18:47:15.709Z,2.70
2019-05-05T18:51:20.849Z,2.27
2019-05-05T18:56:14.423Z,2.90
2019-05-05T19:00:44.071Z,3.00
2019-05-05T19:05:09.851Z,3.00
2019-05-05T19:09:20.357Z,3.67
2019-05-05T19:14:10.587Z,3.23
2019-05-05T19:18:17.940Z,3.40
2019-05-05T19:22:24.849Z,3.23
2019-05-05T19:26:35.202Z,2.87
2019-05-05T19:30:45.772Z,2.87
2019-05-05T19:34:54.349Z,3.20
2019-05-05T19:39:01.170Z,2.97
2019-05-05T19:43:09.509Z,3.57
2019-05-05T19:47:19.678Z,4.13
2019-05-05T19:51:30.237Z,3.20
2019-05-05T19:55:37.743Z,4.00
2019-05-05T19:59:44.812Z,4.07
2019-05-05T20:03:51.919Z,4.60
2019-05-05T20:07:59.825Z,6.43
2019-05-05T20:12:06.561Z,7.00
2019-05-05T20:16:25.675Z,5.50
2019-05-05T20:20:33.639Z,4.80
2019-05-05T20:24:40.560Z,5.07
2019-05-05T20:28:47.422Z,5.20
2019-05-05T20:33:24.197Z,4.03
2019-05-05T20:37:38.532Z,4.57
2019-05-05T20:41:45.317Z,5.27
2019-05-05T20:45:53.796Z,5.77
2019-05-05T20:50:00.749Z,5.23
2019-05-05T20:54:07.862Z,5.37
2019-05-05T20:58:15.156Z,5.30
2019-05-05T21:02:24.236Z,4.73
2019-05-05T21:06:30.678Z,5.30
2019-05-05T21:10:37.388Z,4.80
2019-05-05T21:14:47.827Z,5.23
2019-05-05T21:18:54.513Z,4.80
2019-05-05T21:23:15.999Z,5.97
2019-05-05T21:27:24.519Z,4.87
2019-05-05T21:31:31.302Z,4.73
2019-05-05T21:35:38.029Z,4.53
2019-05-05T21:39:45.498Z,4.93
2019-05-05T21:43:54.074Z,5.30
2019-05-05T21:48:00.968Z,5.40
2019-05-05T21:52:14.701Z,5.40
2019-05-05T21:56:43.725Z,5.40
2019-05-05T22:01:08.048Z,4.87
2019-05-05T22:05:16.938Z,5.40
2019-05-05T22:09:24.316Z,5.47
2019-05-05T22:13:31.022Z,5.47
2019-05-05T22:17:37.706Z,4.97
2019-05-05T22:21:49.247Z,5.17
2019-05-05T22:25:55.991Z,4.83
2019-05-05T22:30:10.074Z,4.87
2019-05-05T22:34:11.035Z,5.17
2019-05-05T22:38:18.172Z,5.47
2019-05-05T22:42:24.887Z,5.73
2019-05-05T22:46:31.677Z,5.50
2019-05-05T22:50:38.458Z,5.53
2019-05-05T22:54:45.202Z,5.27
2019-05-05T22:58:52.059Z,5.23
2019-05-05T23:03:08.492Z,5.07
2019-05-05T23:07:25.668Z,5.50
2019-05-05T23:11:32.335Z,5.33
2019-05-05T23:15:44.003Z,5.83
2019-05-05T23:20:13.437Z,5.40
2019-05-05T23:24:40.503Z,5.83
2019-05-05T23:28:47.198Z,5.90
2019-05-05T23:32:54.823Z,5.60
2019-05-05T23:37:01.715Z,5.90
2019-05-05T23:41:08.479Z,5.93
2019-05-05T23:45:15.187Z,5.27
2019-05-05T23:49:24.019Z,5.67
2019-05-05T23:53:31.430Z,5.77
2019-05-05T23:57:38.115Z,5.80
